sensor_id;sensor_type;location;lat;lon;timestamp;temperature;humidity
32139;DHT22;18644;48.700;9.210;2024-01-16T00:01:35;2.30;58.60
32139;DHT22;18644;48.700;9.210;2024-01-16T00:04:02;2.30;58.70
32139;DHT22;18644;48.700;9.210;2024-01-16T00:06:30;2.30;58.70
32139;DHT22;18644;48.700;9.210;2024-01-16T00:08:57;2.30;58.80
32139;DHT22;18644;48.700;9.210;2024-01-16T00:11:24;2.30;58.70
32139;DHT22;18644;48.700;9.210;2024-01-16T00:13:50;2.30;58.70
32139;DHT22;18644;48.700;9.210;2024-01-16T00:16:19;2.30;58.70
32139;DHT22;18644;48.700;9.210;2024-01-16T00:18:46;2.30;58.80
32139;DHT22;18644;48.700;9.210;2024-01-16T00:21:13;2.30;58.70
32139;DHT22;18644;48.700;9.210;2024-01-16T00:23:41;2.30;58.70
32139;DHT22;18644;48.700;9.210;2024-01-16T00:26:08;2.30;58.70
32139;DHT22;18644;48.700;9.210;2024-01-16T00:28:35;2.30;58.70
32139;DHT22;18644;48.700;9.210;2024-01-16T00:31:07;2.30;58.60
32139;DHT22;18644;48.700;9.210;2024-01-16T00:33:34;2.30;58.50
32139;DHT22;18644;48.700;9.210;2024-01-16T00:36:01;2.30;58.40
32139;DHT22;18644;48.700;9.210;2024-01-16T00:38:27;2.20;58.30
32139;DHT22;18644;48.700;9.210;2024-01-16T00:40:56;2.20;58.30
32139;DHT22;18644;48.700;9.210;2024-01-16T00:43:23;2.20;58.30
32139;DHT22;18644;48.700;9.210;2024-01-16T00:45:50;2.20;58.30
32139;DHT22;18644;48.700;9.210;2024-01-16T00:48:17;2.10;58.20
32139;DHT22;18644;48.700;9.210;2024-01-16T00:50:45;2.10;58.20
32139;DHT22;18644;48.700;9.210;2024-01-16T00:53:12;2.10;58.30
32139;DHT22;18644;48.700;9.210;2024-01-16T00:55:39;2.10;58.30
32139;DHT22;18644;48.700;9.210;2024-01-16T00:58:07;2.10;58.30
32139;DHT22;18644;48.700;9.210;2024-01-16T01:00:34;2.00;58.20
32139;DHT22;18644;48.700;9.210;2024-01-16T01:03:02;2.00;58.30
32139;DHT22;18644;48.700;9.210;2024-01-16T01:05:30;2.00;58.30
32139;DHT22;18644;48.700;9.210;2024-01-16T01:07:57;2.00;58.40
32139;DHT22;18644;48.700;9.210;2024-01-16T01:10:24;2.00;58.50
32139;DHT22;18644;48.700;9.210;2024-01-16T01:12:51;2.00;58.60
32139;DHT22;18644;48.700;9.210;2024-01-16T01:15:20;2.00;58.60
32139;DHT22;18644;48.700;9.210;2024-01-16T01:17:48;2.00;58.60
32139;DHT22;18644;48.700;9.210;2024-01-16T01:20:18;2.00;58.70
32139;DHT22;18644;48.700;9.210;2024-01-16T01:22:45;2.00;58.70
32139;DHT22;18644;48.700;9.210;2024-01-16T01:25:12;2.00;58.60
32139;DHT22;18644;48.700;9.210;2024-01-16T01:27:39;2.00;58.60
32139;DHT22;18644;48.700;9.210;2024-01-16T01:30:08;2.00;58.70
32139;DHT22;18644;48.700;9.210;2024-01-16T01:32:37;2.00;58.70
32139;DHT22;18644;48.700;9.210;2024-01-16T01:35:05;2.00;58.70
32139;DHT22;18644;48.700;9.210;2024-01-16T01:37:32;2.00;58.70
32139;DHT22;18644;48.700;9.210;2024-01-16T01:39:59;2.00;58.70
32139;DHT22;18644;48.700;9.210;2024-01-16T01:42:26;2.10;59.30
32139;DHT22;18644;48.700;9.210;2024-01-16T01:44:53;2.10;58.70
32139;DHT22;18644;48.700;9.210;2024-01-16T01:47:20;2.10;58.70
32139;DHT22;18644;48.700;9.210;2024-01-16T01:49:48;2.10;58.70
32139;DHT22;18644;48.700;9.210;2024-01-16T01:52:16;2.10;58.60
32139;DHT22;18644;48.700;9.210;2024-01-16T01:54:44;2.10;58.60
32139;DHT22;18644;48.700;9.210;2024-01-16T01:57:11;2.10;58.60
32139;DHT22;18644;48.700;9.210;2024-01-16T01:59:38;2.10;58.60
32139;DHT22;18644;48.700;9.210;2024-01-16T02:02:05;2.10;58.60
32139;DHT22;18644;48.700;9.210;2024-01-16T02:04:33;2.10;58.50
32139;DHT22;18644;48.700;9.210;2024-01-16T02:07:02;2.10;58.50
32139;DHT22;18644;48.700;9.210;2024-01-16T02:09:29;2.10;58.50
32139;DHT22;18644;48.700;9.210;2024-01-16T02:11:56;2.10;58.40
32139;DHT22;18644;48.700;9.210;2024-01-16T02:14:23;2.10;58.40
32139;DHT22;18644;48.700;9.210;2024-01-16T02:16:50;2.10;58.30
32139;DHT22;18644;48.700;9.210;2024-01-16T02:19:17;2.00;58.20
32139;DHT22;18644;48.700;9.210;2024-01-16T02:21:47;2.00;58.20
32139;DHT22;18644;48.700;9.210;2024-01-16T02:24:17;2.00;58.10
32139;DHT22;18644;48.700;9.210;2024-01-16T02:26:45;2.00;58.10
32139;DHT22;18644;48.700;9.210;2024-01-16T02:29:12;2.00;58.00
32139;DHT22;18644;48.700;9.210;2024-01-16T02:31:39;2.00;58.00
32139;DHT22;18644;48.700;9.210;2024-01-16T02:34:06;1.90;58.00
32139;DHT22;18644;48.700;9.210;2024-01-16T02:36:34;1.90;57.90
32139;DHT22;18644;48.700;9.210;2024-01-16T02:39:01;1.90;57.90
32139;DHT22;18644;48.700;9.210;2024-01-16T02:41:29;1.80;57.80
32139;DHT22;18644;48.700;9.210;2024-01-16T02:43:56;1.80;57.70
32139;DHT22;18644;48.700;9.210;2024-01-16T02:46:23;1.80;57.70
32139;DHT22;18644;48.700;9.210;2024-01-16T02:48:50;1.80;57.70
32139;DHT22;18644;48.700;9.210;2024-01-16T02:51:16;1.70;57.70
32139;DHT22;18644;48.700;9.210;2024-01-16T02:53:43;1.70;57.70
32139;DHT22;18644;48.700;9.210;2024-01-16T02:56:10;1.70;57.80
32139;DHT22;18644;48.700;9.210;2024-01-16T02:58:38;1.60;57.90
32139;DHT22;18644;48.700;9.210;2024-01-16T03:01:06;1.60;58.00
32139;DHT22;18644;48.700;9.210;2024-01-16T03:03:32;1.60;58.00
32139;DHT22;18644;48.700;9.210;2024-01-16T03:09:43;1.60;58.20
32139;DHT22;18644;48.700;9.210;2024-01-16T03:12:10;1.60;58.20
32139;DHT22;18644;48.700;9.210;2024-01-16T03:14:38;1.50;58.20
32139;DHT22;18644;48.700;9.210;2024-01-16T03:17:05;1.50;58.20
32139;DHT22;18644;48.700;9.210;2024-01-16T03:19:32;1.50;58.10
32139;DHT22;18644;48.700;9.210;2024-01-16T03:21:59;1.50;58.00
32139;DHT22;18644;48.700;9.210;2024-01-16T03:24:26;1.50;58.00
32139;DHT22;18644;48.700;9.210;2024-01-16T03:26:53;1.40;57.90
32139;DHT22;18644;48.700;9.210;2024-01-16T03:29:20;1.40;57.80
32139;DHT22;18644;48.700;9.210;2024-01-16T03:31:48;1.40;57.70
32139;DHT22;18644;48.700;9.210;2024-01-16T03:34:15;1.30;57.60
32139;DHT22;18644;48.700;9.210;2024-01-16T03:36:42;1.30;57.60
32139;DHT22;18644;48.700;9.210;2024-01-16T03:39:08;1.30;57.70
32139;DHT22;18644;48.700;9.210;2024-01-16T03:41:35;1.20;57.80
32139;DHT22;18644;48.700;9.210;2024-01-16T03:44:02;1.20;57.90
32139;DHT22;18644;48.700;9.210;2024-01-16T03:46:29;1.20;57.90
32139;DHT22;18644;48.700;9.210;2024-01-16T03:48:57;1.20;57.90
32139;DHT22;18644;48.700;9.210;2024-01-16T03:51:24;1.10;57.90
32139;DHT22;18644;48.700;9.210;2024-01-16T03:53:51;1.10;57.90
32139;DHT22;18644;48.700;9.210;2024-01-16T03:56:18;1.10;57.80
32139;DHT22;18644;48.700;9.210;2024-01-16T03:58:45;1.10;57.80
32139;DHT22;18644;48.700;9.210;2024-01-16T04:01:12;1.00;57.80
32139;DHT22;18644;48.700;9.210;2024-01-16T04:03:39;1.00;57.80
32139;DHT22;18644;48.700;9.210;2024-01-16T04:06:15;1.00;57.80
32139;DHT22;18644;48.700;9.210;2024-01-16T04:08:43;0.90;57.90
32139;DHT22;18644;48.700;9.210;2024-01-16T04:11:12;0.90;57.90
32139;DHT22;18644;48.700;9.210;2024-01-16T04:13:39;0.90;58.10
32139;DHT22;18644;48.700;9.210;2024-01-16T04:16:06;0.90;58.10
32139;DHT22;18644;48.700;9.210;2024-01-16T04:18:36;0.90;58.10
32139;DHT22;18644;48.700;9.210;2024-01-16T04:21:04;0.90;58.20
32139;DHT22;18644;48.700;9.210;2024-01-16T04:23:33;0.90;58.20
32139;DHT22;18644;48.700;9.210;2024-01-16T04:25:59;0.80;58.10
32139;DHT22;18644;48.700;9.210;2024-01-16T04:28:26;0.80;58.00
32139;DHT22;18644;48.700;9.210;2024-01-16T04:30:53;0.80;58.00
32139;DHT22;18644;48.700;9.210;2024-01-16T04:33:20;0.70;58.00
32139;DHT22;18644;48.700;9.210;2024-01-16T04:35:47;0.70;58.00
32139;DHT22;18644;48.700;9.210;2024-01-16T04:38:14;0.70;58.10
32139;DHT22;18644;48.700;9.210;2024-01-16T04:40:42;0.70;58.20
32139;DHT22;18644;48.700;9.210;2024-01-16T04:43:09;0.70;58.30
32139;DHT22;18644;48.700;9.210;2024-01-16T04:45:36;0.70;58.30
32139;DHT22;18644;48.700;9.210;2024-01-16T04:48:03;0.70;58.20
32139;DHT22;18644;48.700;9.210;2024-01-16T04:50:30;0.70;58.30
32139;DHT22;18644;48.700;9.210;2024-01-16T04:52:58;0.70;58.30
32139;DHT22;18644;48.700;9.210;2024-01-16T04:55:26;0.70;58.30
32139;DHT22;18644;48.700;9.210;2024-01-16T04:57:55;0.70;58.30
32139;DHT22;18644;48.700;9.210;2024-01-16T05:00:22;0.70;58.20
32139;DHT22;18644;48.700;9.210;2024-01-16T05:02:49;0.70;58.10
32139;DHT22;18644;48.700;9.210;2024-01-16T05:05:16;0.70;58.00
32139;DHT22;18644;48.700;9.210;2024-01-16T05:07:44;0.60;57.90
32139;DHT22;18644;48.700;9.210;2024-01-16T05:10:11;0.60;57.80
32139;DHT22;18644;48.700;9.210;2024-01-16T05:12:39;0.60;57.80
32139;DHT22;18644;48.700;9.210;2024-01-16T05:15:08;0.60;57.80
32139;DHT22;18644;48.700;9.210;2024-01-16T05:17:36;0.50;58.20
32139;DHT22;18644;48.700;9.210;2024-01-16T05:20:04;0.50;57.50
32139;DHT22;18644;48.700;9.210;2024-01-16T05:22:32;0.50;57.50
32139;DHT22;18644;48.700;9.210;2024-01-16T05:24:59;0.40;57.50
32139;DHT22;18644;48.700;9.210;2024-01-16T05:27:26;0.30;57.60
32139;DHT22;18644;48.700;9.210;2024-01-16T05:29:53;0.30;58.20
32139;DHT22;18644;48.700;9.210;2024-01-16T05:32:21;0.30;57.70
32139;DHT22;18644;48.700;9.210;2024-01-16T05:34:48;0.30;57.80
32139;DHT22;18644;48.700;9.210;2024-01-16T05:37:15;0.20;57.90
32139;DHT22;18644;48.700;9.210;2024-01-16T05:39:42;0.20;58.00
32139;DHT22;18644;48.700;9.210;2024-01-16T05:42:09;0.20;58.10
32139;DHT22;18644;48.700;9.210;2024-01-16T05:44:36;0.20;58.10
32139;DHT22;18644;48.700;9.210;2024-01-16T05:47:04;0.20;58.20
32139;DHT22;18644;48.700;9.210;2024-01-16T05:49:32;0.20;58.20
32139;DHT22;18644;48.700;9.210;2024-01-16T05:51:59;0.20;58.10
32139;DHT22;18644;48.700;9.210;2024-01-16T05:54:27;0.20;57.90
32139;DHT22;18644;48.700;9.210;2024-01-16T05:56:54;0.20;57.80
32139;DHT22;18644;48.700;9.210;2024-01-16T05:59:21;0.20;57.80
32139;DHT22;18644;48.700;9.210;2024-01-16T06:01:48;0.10;57.80
32139;DHT22;18644;48.700;9.210;2024-01-16T06:04:15;0.10;57.80
32139;DHT22;18644;48.700;9.210;2024-01-16T06:06:44;0.10;58.00
32139;DHT22;18644;48.700;9.210;2024-01-16T06:09:13;0.10;58.10
32139;DHT22;18644;48.700;9.210;2024-01-16T06:11:41;0.10;58.20
32139;DHT22;18644;48.700;9.210;2024-01-16T06:14:07;0.10;58.30
32139;DHT22;18644;48.700;9.210;2024-01-16T06:16:35;0.10;58.40
32139;DHT22;18644;48.700;9.210;2024-01-16T06:19:02;0.10;58.50
32139;DHT22;18644;48.700;9.210;2024-01-16T06:21:30;0.10;58.50
32139;DHT22;18644;48.700;9.210;2024-01-16T06:23:58;0.10;58.50
32139;DHT22;18644;48.700;9.210;2024-01-16T06:26:25;0.10;58.30
32139;DHT22;18644;48.700;9.210;2024-01-16T06:28:52;0.10;58.30
32139;DHT22;18644;48.700;9.210;2024-01-16T06:31:19;0.10;58.30
32139;DHT22;18644;48.700;9.210;2024-01-16T06:33:46;0.10;58.30
32139;DHT22;18644;48.700;9.210;2024-01-16T06:36:13;0.10;58.40
32139;DHT22;18644;48.700;9.210;2024-01-16T06:38:39;0.10;58.40
32139;DHT22;18644;48.700;9.210;2024-01-16T06:41:08;0.20;58.50
32139;DHT22;18644;48.700;9.210;2024-01-16T06:43:35;0.20;58.50
32139;DHT22;18644;48.700;9.210;2024-01-16T06:46:02;0.20;58.40
32139;DHT22;18644;48.700;9.210;2024-01-16T06:48:29;0.20;58.40
32139;DHT22;18644;48.700;9.210;2024-01-16T06:50:56;0.20;58.40
32139;DHT22;18644;48.700;9.210;2024-01-16T06:53:22;0.20;58.40
32139;DHT22;18644;48.700;9.210;2024-01-16T06:55:49;0.30;58.90
32139;DHT22;18644;48.700;9.210;2024-01-16T06:58:18;0.30;58.40
32139;DHT22;18644;48.700;9.210;2024-01-16T07:00:45;0.30;58.30
32139;DHT22;18644;48.700;9.210;2024-01-16T07:03:13;0.30;58.30
32139;DHT22;18644;48.700;9.210;2024-01-16T07:05:40;0.40;58.30
32139;DHT22;18644;48.700;9.210;2024-01-16T07:08:08;0.40;58.20
32139;DHT22;18644;48.700;9.210;2024-01-16T07:10:35;0.40;58.20
32139;DHT22;18644;48.700;9.210;2024-01-16T07:13:02;0.40;58.10
32139;DHT22;18644;48.700;9.210;2024-01-16T07:15:31;0.40;58.10
32139;DHT22;18644;48.700;9.210;2024-01-16T07:17:57;0.40;58.10
32139;DHT22;18644;48.700;9.210;2024-01-16T07:20:24;0.40;58.00
32139;DHT22;18644;48.700;9.210;2024-01-16T07:22:51;0.40;57.90
32139;DHT22;18644;48.700;9.210;2024-01-16T07:25:18;0.50;57.90
32139;DHT22;18644;48.700;9.210;2024-01-16T07:27:45;0.50;57.80
32139;DHT22;18644;48.700;9.210;2024-01-16T07:30:15;0.40;57.70
32139;DHT22;18644;48.700;9.210;2024-01-16T07:32:43;0.50;57.70
32139;DHT22;18644;48.700;9.210;2024-01-16T07:35:10;0.50;57.70
32139;DHT22;18644;48.700;9.210;2024-01-16T07:37:37;0.50;57.60
32139;DHT22;18644;48.700;9.210;2024-01-16T07:40:05;0.50;57.60
32139;DHT22;18644;48.700;9.210;2024-01-16T07:42:35;0.50;57.70
32139;DHT22;18644;48.700;9.210;2024-01-16T07:45:02;0.50;57.60
32139;DHT22;18644;48.700;9.210;2024-01-16T07:47:30;0.50;57.60
32139;DHT22;18644;48.700;9.210;2024-01-16T07:50:00;0.50;57.60
32139;DHT22;18644;48.700;9.210;2024-01-16T07:52:27;0.50;58.20
32139;DHT22;18644;48.700;9.210;2024-01-16T07:54:54;0.60;57.70
32139;DHT22;18644;48.700;9.210;2024-01-16T07:57:21;0.60;57.70
32139;DHT22;18644;48.700;9.210;2024-01-16T07:59:48;0.60;57.70
32139;DHT22;18644;48.700;9.210;2024-01-16T08:02:15;0.60;57.60
32139;DHT22;18644;48.700;9.210;2024-01-16T08:04:42;0.60;57.60
32139;DHT22;18644;48.700;9.210;2024-01-16T08:07:11;0.70;57.70
32139;DHT22;18644;48.700;9.210;2024-01-16T08:09:38;0.70;57.70
32139;DHT22;18644;48.700;9.210;2024-01-16T08:12:05;0.70;57.60
32139;DHT22;18644;48.700;9.210;2024-01-16T08:14:33;0.80;57.60
32139;DHT22;18644;48.700;9.210;2024-01-16T08:17:00;0.80;57.60
32139;DHT22;18644;48.700;9.210;2024-01-16T08:19:26;0.80;57.50
32139;DHT22;18644;48.700;9.210;2024-01-16T08:21:53;0.90;57.50
32139;DHT22;18644;48.700;9.210;2024-01-16T08:24:22;0.90;57.50
32139;DHT22;18644;48.700;9.210;2024-01-16T08:26:49;0.90;57.40
32139;DHT22;18644;48.700;9.210;2024-01-16T08:29:16;1.00;57.40
32139;DHT22;18644;48.700;9.210;2024-01-16T08:31:43;1.00;57.40
32139;DHT22;18644;48.700;9.210;2024-01-16T08:34:10;1.10;57.50
32139;DHT22;18644;48.700;9.210;2024-01-16T08:36:37;1.10;57.40
32139;DHT22;18644;48.700;9.210;2024-01-16T08:39:03;1.20;57.50
32139;DHT22;18644;48.700;9.210;2024-01-16T08:41:32;1.30;57.50
32139;DHT22;18644;48.700;9.210;2024-01-16T08:43:59;1.30;57.50
32139;DHT22;18644;48.700;9.210;2024-01-16T08:46:26;1.30;57.40
32139;DHT22;18644;48.700;9.210;2024-01-16T08:48:53;1.40;57.40
32139;DHT22;18644;48.700;9.210;2024-01-16T08:51:20;1.50;57.30
32139;DHT22;18644;48.700;9.210;2024-01-16T08:53:47;1.50;57.30
32139;DHT22;18644;48.700;9.210;2024-01-16T08:56:14;1.60;57.30
32139;DHT22;18644;48.700;9.210;2024-01-16T08:58:44;1.60;57.30
32139;DHT22;18644;48.700;9.210;2024-01-16T09:01:11;1.60;57.20
32139;DHT22;18644;48.700;9.210;2024-01-16T09:03:38;1.70;57.30
32139;DHT22;18644;48.700;9.210;2024-01-16T09:06:05;1.70;57.20
32139;DHT22;18644;48.700;9.210;2024-01-16T09:08:32;1.80;57.00
32139;DHT22;18644;48.700;9.210;2024-01-16T09:10:59;1.80;56.90
32139;DHT22;18644;48.700;9.210;2024-01-16T09:13:26;1.80;56.90
32139;DHT22;18644;48.700;9.210;2024-01-16T09:15:54;1.90;57.00
32139;DHT22;18644;48.700;9.210;2024-01-16T09:18:21;1.90;57.00
32139;DHT22;18644;48.700;9.210;2024-01-16T09:20:48;2.00;57.20
32139;DHT22;18644;48.700;9.210;2024-01-16T09:23:15;2.10;57.20
32139;DHT22;18644;48.700;9.210;2024-01-16T09:25:41;2.10;57.10
32139;DHT22;18644;48.700;9.210;2024-01-16T09:28:08;2.20;57.20
32139;DHT22;18644;48.700;9.210;2024-01-16T09:30:35;2.30;57.30
32139;DHT22;18644;48.700;9.210;2024-01-16T09:33:04;2.40;57.40
32139;DHT22;18644;48.700;9.210;2024-01-16T09:35:32;2.50;57.40
32139;DHT22;18644;48.700;9.210;2024-01-16T09:38:00;2.60;57.40
32139;DHT22;18644;48.700;9.210;2024-01-16T09:40:27;2.70;57.40
32139;DHT22;18644;48.700;9.210;2024-01-16T09:42:54;2.80;57.50
32139;DHT22;18644;48.700;9.210;2024-01-16T09:45:21;2.90;57.50
32139;DHT22;18644;48.700;9.210;2024-01-16T09:47:50;3.00;57.30
32139;DHT22;18644;48.700;9.210;2024-01-16T09:50:19;3.10;57.20
32139;DHT22;18644;48.700;9.210;2024-01-16T09:52:47;3.20;57.10
32139;DHT22;18644;48.700;9.210;2024-01-16T09:55:14;3.30;56.70
32139;DHT22;18644;48.700;9.210;2024-01-16T09:57:45;3.40;56.40
32139;DHT22;18644;48.700;9.210;2024-01-16T10:00:13;3.50;56.30
32139;DHT22;18644;48.700;9.210;2024-01-16T10:02:41;3.60;56.60
32139;DHT22;18644;48.700;9.210;2024-01-16T10:05:09;3.80;56.90
32139;DHT22;18644;48.700;9.210;2024-01-16T10:07:40;4.00;57.20
32139;DHT22;18644;48.700;9.210;2024-01-16T10:10:09;4.20;57.40
32139;DHT22;18644;48.700;9.210;2024-01-16T10:12:37;4.40;57.70
32139;DHT22;18644;48.700;9.210;2024-01-16T10:15:06;4.70;57.80
32139;DHT22;18644;48.700;9.210;2024-01-16T10:17:37;5.00;57.70
32139;DHT22;18644;48.700;9.210;2024-01-16T10:20:06;5.30;57.80
32139;DHT22;18644;48.700;9.210;2024-01-16T10:22:40;5.60;57.70
32139;DHT22;18644;48.700;9.210;2024-01-16T10:25:10;5.80;57.30
32139;DHT22;18644;48.700;9.210;2024-01-16T10:27:42;6.10;57.00
32139;DHT22;18644;48.700;9.210;2024-01-16T10:30:09;6.30;56.60
32139;DHT22;18644;48.700;9.210;2024-01-16T10:32:37;6.50;56.20
32139;DHT22;18644;48.700;9.210;2024-01-16T10:35:06;6.70;55.90
32139;DHT22;18644;48.700;9.210;2024-01-16T10:37:46;6.80;55.50
32139;DHT22;18644;48.700;9.210;2024-01-16T10:40:17;7.00;54.70
32139;DHT22;18644;48.700;9.210;2024-01-16T10:42:44;7.10;54.40
32139;DHT22;18644;48.700;9.210;2024-01-16T10:45:17;7.20;54.20
32139;DHT22;18644;48.700;9.210;2024-01-16T10:47:46;7.20;53.70
32139;DHT22;18644;48.700;9.210;2024-01-16T10:50:13;7.30;53.70
32139;DHT22;18644;48.700;9.210;2024-01-16T10:52:47;7.30;53.50
32139;DHT22;18644;48.700;9.210;2024-01-16T10:55:19;7.40;53.30
32139;DHT22;18644;48.700;9.210;2024-01-16T10:57:48;7.40;53.40
32139;DHT22;18644;48.700;9.210;2024-01-16T11:00:18;7.50;53.40
32139;DHT22;18644;48.700;9.210;2024-01-16T11:02:51;7.60;53.30
32139;DHT22;18644;48.700;9.210;2024-01-16T11:05:22;7.70;53.10
32139;DHT22;18644;48.700;9.210;2024-01-16T11:07:50;7.80;53.00
32139;DHT22;18644;48.700;9.210;2024-01-16T11:10:21;7.90;53.00
32139;DHT22;18644;48.700;9.210;2024-01-16T11:12:51;8.00;53.00
32139;DHT22;18644;48.700;9.210;2024-01-16T11:15:19;8.00;52.50
32139;DHT22;18644;48.700;9.210;2024-01-16T11:17:47;8.10;52.10
32139;DHT22;18644;48.700;9.210;2024-01-16T11:20:16;8.10;51.60
32139;DHT22;18644;48.700;9.210;2024-01-16T11:22:45;8.00;51.30
32139;DHT22;18644;48.700;9.210;2024-01-16T11:25:14;8.00;51.10
32139;DHT22;18644;48.700;9.210;2024-01-16T11:27:43;8.00;50.90
32139;DHT22;18644;48.700;9.210;2024-01-16T11:30:30;7.90;50.80
32139;DHT22;18644;48.700;9.210;2024-01-16T11:32:58;7.80;50.40
32139;DHT22;18644;48.700;9.210;2024-01-16T11:35:32;7.80;50.90
32139;DHT22;18644;48.700;9.210;2024-01-16T11:38:04;7.80;51.30
32139;DHT22;18644;48.700;9.210;2024-01-16T11:40:34;7.80;51.60
32139;DHT22;18644;48.700;9.210;2024-01-16T11:43:35;7.90;51.80
32139;DHT22;18644;48.700;9.210;2024-01-16T11:46:03;7.90;51.20
32139;DHT22;18644;48.700;9.210;2024-01-16T11:48:31;8.00;51.60
32139;DHT22;18644;48.700;9.210;2024-01-16T11:50:58;8.10;51.60
32139;DHT22;18644;48.700;9.210;2024-01-16T11:53:32;8.20;51.80
32139;DHT22;18644;48.700;9.210;2024-01-16T11:56:11;8.30;51.80
32139;DHT22;18644;48.700;9.210;2024-01-16T11:58:48;8.40;51.60
32139;DHT22;18644;48.700;9.210;2024-01-16T12:01:17;8.40;51.70
32139;DHT22;18644;48.700;9.210;2024-01-16T12:03:46;8.50;51.60
32139;DHT22;18644;48.700;9.210;2024-01-16T12:06:16;8.60;51.60
32139;DHT22;18644;48.700;9.210;2024-01-16T12:08:43;8.70;51.40
32139;DHT22;18644;48.700;9.210;2024-01-16T12:11:11;8.80;51.40
32139;DHT22;18644;48.700;9.210;2024-01-16T12:13:38;8.90;51.10
32139;DHT22;18644;48.700;9.210;2024-01-16T12:16:05;9.00;51.10
32139;DHT22;18644;48.700;9.210;2024-01-16T12:18:33;9.00;50.80
32139;DHT22;18644;48.700;9.210;2024-01-16T12:21:08;9.10;50.90
32139;DHT22;18644;48.700;9.210;2024-01-16T12:23:35;9.20;50.70
32139;DHT22;18644;48.700;9.210;2024-01-16T12:26:03;9.30;50.80
32139;DHT22;18644;48.700;9.210;2024-01-16T12:28:31;9.40;50.50
32139;DHT22;18644;48.700;9.210;2024-01-16T12:30:58;9.50;50.30
32139;DHT22;18644;48.700;9.210;2024-01-16T12:33:24;9.60;50.30
32139;DHT22;18644;48.700;9.210;2024-01-16T12:36:00;9.60;50.10
32139;DHT22;18644;48.700;9.210;2024-01-16T12:38:29;9.70;49.90
32139;DHT22;18644;48.700;9.210;2024-01-16T12:40:56;9.80;50.10
32139;DHT22;18644;48.700;9.210;2024-01-16T12:43:24;9.90;49.90
32139;DHT22;18644;48.700;9.210;2024-01-16T12:45:56;9.90;49.80
32139;DHT22;18644;48.700;9.210;2024-01-16T12:48:24;10.00;49.40
32139;DHT22;18644;48.700;9.210;2024-01-16T12:50:51;10.00;49.40
32139;DHT22;18644;48.700;9.210;2024-01-16T12:53:25;10.10;49.20
32139;DHT22;18644;48.700;9.210;2024-01-16T12:55:58;10.20;49.30
32139;DHT22;18644;48.700;9.210;2024-01-16T12:58:31;10.20;49.00
32139;DHT22;18644;48.700;9.210;2024-01-16T13:01:21;10.30;49.00
32139;DHT22;18644;48.700;9.210;2024-01-16T13:03:49;10.40;48.50
32139;DHT22;18644;48.700;9.210;2024-01-16T13:06:17;10.40;48.60
32139;DHT22;18644;48.700;9.210;2024-01-16T13:08:45;10.50;48.20
32139;DHT22;18644;48.700;9.210;2024-01-16T13:11:12;10.50;47.70
32139;DHT22;18644;48.700;9.210;2024-01-16T13:13:41;10.50;47.50
32139;DHT22;18644;48.700;9.210;2024-01-16T13:16:09;10.50;47.00
32139;DHT22;18644;48.700;9.210;2024-01-16T13:18:37;10.50;47.00
32139;DHT22;18644;48.700;9.210;2024-01-16T13:21:04;10.50;47.00
32139;DHT22;18644;48.700;9.210;2024-01-16T13:23:31;10.60;46.80
32139;DHT22;18644;48.700;9.210;2024-01-16T13:25:58;10.50;46.60
32139;DHT22;18644;48.700;9.210;2024-01-16T13:28:26;10.60;46.50
32139;DHT22;18644;48.700;9.210;2024-01-16T13:30:53;10.60;46.70
32139;DHT22;18644;48.700;9.210;2024-01-16T13:33:23;10.60;46.50
32139;DHT22;18644;48.700;9.210;2024-01-16T13:35:52;10.60;46.50
32139;DHT22;18644;48.700;9.210;2024-01-16T13:38:21;10.70;46.50
32139;DHT22;18644;48.700;9.210;2024-01-16T13:40:48;10.70;47.00
32139;DHT22;18644;48.700;9.210;2024-01-16T13:43:15;10.70;46.10
32139;DHT22;18644;48.700;9.210;2024-01-16T13:45:42;10.80;46.20
32139;DHT22;18644;48.700;9.210;2024-01-16T13:48:09;10.80;46.00
32139;DHT22;18644;48.700;9.210;2024-01-16T13:50:37;10.90;45.90
32139;DHT22;18644;48.700;9.210;2024-01-16T13:53:04;10.80;46.30
32139;DHT22;18644;48.700;9.210;2024-01-16T13:55:32;10.80;45.90
32139;DHT22;18644;48.700;9.210;2024-01-16T13:57:59;10.90;45.80
32139;DHT22;18644;48.700;9.210;2024-01-16T14:00:27;10.90;45.90
32139;DHT22;18644;48.700;9.210;2024-01-16T14:02:54;10.90;45.80
32139;DHT22;18644;48.700;9.210;2024-01-16T14:05:21;10.90;45.80
32139;DHT22;18644;48.700;9.210;2024-01-16T14:07:50;10.90;45.50
32139;DHT22;18644;48.700;9.210;2024-01-16T14:10:19;10.90;45.20
32139;DHT22;18644;48.700;9.210;2024-01-16T14:12:48;10.90;45.30
32139;DHT22;18644;48.700;9.210;2024-01-16T14:15:17;10.90;45.20
32139;DHT22;18644;48.700;9.210;2024-01-16T14:17:47;10.90;45.20
32139;DHT22;18644;48.700;9.210;2024-01-16T14:20:15;10.90;45.10
32139;DHT22;18644;48.700;9.210;2024-01-16T14:22:44;10.90;44.70
32139;DHT22;18644;48.700;9.210;2024-01-16T14:25:12;10.80;44.70
32139;DHT22;18644;48.700;9.210;2024-01-16T14:27:41;10.70;44.50
32139;DHT22;18644;48.700;9.210;2024-01-16T14:30:10;10.70;44.60
32139;DHT22;18644;48.700;9.210;2024-01-16T14:32:39;10.70;44.60
32139;DHT22;18644;48.700;9.210;2024-01-16T14:35:07;10.60;44.40
32139;DHT22;18644;48.700;9.210;2024-01-16T14:37:35;10.60;44.40
32139;DHT22;18644;48.700;9.210;2024-01-16T14:40:04;10.50;44.30
32139;DHT22;18644;48.700;9.210;2024-01-16T14:42:39;10.50;44.20
32139;DHT22;18644;48.700;9.210;2024-01-16T14:45:07;10.40;44.00
32139;DHT22;18644;48.700;9.210;2024-01-16T14:47:37;10.30;43.90
32139;DHT22;18644;48.700;9.210;2024-01-16T14:50:04;10.30;44.10
32139;DHT22;18644;48.700;9.210;2024-01-16T14:52:32;10.20;44.10
32139;DHT22;18644;48.700;9.210;2024-01-16T14:54:59;10.20;43.80
32139;DHT22;18644;48.700;9.210;2024-01-16T14:57:27;10.10;43.60
32139;DHT22;18644;48.700;9.210;2024-01-16T14:59:57;10.10;43.50
32139;DHT22;18644;48.700;9.210;2024-01-16T15:02:24;10.00;43.20
32139;DHT22;18644;48.700;9.210;2024-01-16T15:04:51;9.90;43.00
32139;DHT22;18644;48.700;9.210;2024-01-16T15:07:18;9.80;43.10
32139;DHT22;18644;48.700;9.210;2024-01-16T15:09:45;9.70;42.90
32139;DHT22;18644;48.700;9.210;2024-01-16T15:12:12;9.60;42.80
32139;DHT22;18644;48.700;9.210;2024-01-16T15:14:39;9.50;42.80
32139;DHT22;18644;48.700;9.210;2024-01-16T15:17:08;9.40;42.80
32139;DHT22;18644;48.700;9.210;2024-01-16T15:19:36;9.30;42.70
32139;DHT22;18644;48.700;9.210;2024-01-16T15:22:03;9.10;42.80
32139;DHT22;18644;48.700;9.210;2024-01-16T15:24:30;9.00;42.80
32139;DHT22;18644;48.700;9.210;2024-01-16T15:26:57;8.90;42.90
32139;DHT22;18644;48.700;9.210;2024-01-16T15:29:24;8.80;43.10
32139;DHT22;18644;48.700;9.210;2024-01-16T15:31:51;8.60;43.20
32139;DHT22;18644;48.700;9.210;2024-01-16T15:34:21;8.40;43.20
32139;DHT22;18644;48.700;9.210;2024-01-16T15:36:48;8.30;43.30
32139;DHT22;18644;48.700;9.210;2024-01-16T15:39:15;8.10;43.50
32139;DHT22;18644;48.700;9.210;2024-01-16T15:41:42;7.80;43.60
32139;DHT22;18644;48.700;9.210;2024-01-16T15:44:09;7.60;43.60
32139;DHT22;18644;48.700;9.210;2024-01-16T15:46:58;7.40;43.80
32139;DHT22;18644;48.700;9.210;2024-01-16T15:49:28;7.20;43.90
32139;DHT22;18644;48.700;9.210;2024-01-16T15:51:57;7.00;44.10
32139;DHT22;18644;48.700;9.210;2024-01-16T15:54:25;6.70;44.10